sensor_id;sensor_type;location;lat;lon;timestamp;temperature;humidity
10530;DHT22;5313;48.834;9.228;2022-09-01T00:01:56;15.80;99.90
10530;DHT22;5313;48.834;9.228;2022-09-01T00:04:23;15.80;99.90
10530;DHT22;5313;48.834;9.228;2022-09-01T00:06:53;15.80;99.90
10530;DHT22;5313;48.834;9.228;2022-09-01T00:09:21;15.70;99.90
10530;DHT22;5313;48.834;9.228;2022-09-01T00:11:50;15.60;99.90
10530;DHT22;5313;48.834;9.228;2022-09-01T00:14:22;15.60;99.90
10530;DHT22;5313;48.834;9.228;2022-09-01T00:16:48;15.60;99.90
10530;DHT22;5313;48.834;9.228;2022-09-01T00:19:14;15.60;99.90
10530;DHT22;5313;48.834;9.228;2022-09-01T00:21:42;15.50;99.90
10530;DHT22;5313;48.834;9.228;2022-09-01T00:24:10;15.60;99.90
10530;DHT22;5313;48.834;9.228;2022-09-01T00:26:36;15.70;99.90
10530;DHT22;5313;48.834;9.228;2022-09-01T00:29:02;15.60;99.90
10530;DHT22;5313;48.834;9.228;2022-09-01T00:31:28;15.60;99.90
10530;DHT22;5313;48.834;9.228;2022-09-01T00:33:54;15.60;99.90
10530;DHT22;5313;48.834;9.228;2022-09-01T00:36:20;15.50;99.90
10530;DHT22;5313;48.834;9.228;2022-09-01T00:38:46;15.50;99.90
10530;DHT22;5313;48.834;9.228;2022-09-01T00:41:12;15.60;99.90
10530;DHT22;5313;48.834;9.228;2022-09-01T00:46:33;15.60;99.90
10530;DHT22;5313;48.834;9.228;2022-09-01T00:49:04;15.60;99.90
10530;DHT22;5313;48.834;9.228;2022-09-01T00:51:31;15.50;99.90
10530;DHT22;5313;48.834;9.228;2022-09-01T00:53:58;15.30;99.90
10530;DHT22;5313;48.834;9.228;2022-09-01T00:56:24;15.30;99.90
10530;DHT22;5313;48.834;9.228;2022-09-01T00:58:52;15.30;99.90
10530;DHT22;5313;48.834;9.228;2022-09-01T01:01:18;15.20;99.90
10530;DHT22;5313;48.834;9.228;2022-09-01T01:03:44;15.30;99.90
10530;DHT22;5313;48.834;9.228;2022-09-01T01:06:12;15.30;99.90
10530;DHT22;5313;48.834;9.228;2022-09-01T01:08:42;15.30;99.90
10530;DHT22;5313;48.834;9.228;2022-09-01T01:11:15;15.30;99.90
10530;DHT22;5313;48.834;9.228;2022-09-01T01:14:05;15.30;99.90
10530;DHT22;5313;48.834;9.228;2022-09-01T01:16:37;15.30;99.90
10530;DHT22;5313;48.834;9.228;2022-09-01T01:19:06;15.20;99.90
10530;DHT22;5313;48.834;9.228;2022-09-01T01:21:53;15.30;99.90
10530;DHT22;5313;48.834;9.228;2022-09-01T01:24:37;15.30;99.90
10530;DHT22;5313;48.834;9.228;2022-09-01T01:27:02;15.30;99.90
10530;DHT22;5313;48.834;9.228;2022-09-01T01:29:34;15.20;99.90
10530;DHT22;5313;48.834;9.228;2022-09-01T01:32:01;15.20;99.90
10530;DHT22;5313;48.834;9.228;2022-09-01T01:34:29;15.20;99.90
10530;DHT22;5313;48.834;9.228;2022-09-01T01:36:55;15.20;99.90
10530;DHT22;5313;48.834;9.228;2022-09-01T01:39:24;15.20;99.90
10530;DHT22;5313;48.834;9.228;2022-09-01T01:41:52;15.20;99.90
10530;DHT22;5313;48.834;9.228;2022-09-01T01:44:22;15.10;99.90
10530;DHT22;5313;48.834;9.228;2022-09-01T01:46:53;15.10;99.90
10530;DHT22;5313;48.834;9.228;2022-09-01T01:49:22;15.10;99.90
10530;DHT22;5313;48.834;9.228;2022-09-01T01:51:50;15.10;99.90
10530;DHT22;5313;48.834;9.228;2022-09-01T01:54:23;15.00;99.90
10530;DHT22;5313;48.834;9.228;2022-09-01T01:56:49;15.10;99.90
10530;DHT22;5313;48.834;9.228;2022-09-01T01:59:15;15.10;99.90
10530;DHT22;5313;48.834;9.228;2022-09-01T02:01:43;15.20;99.90
10530;DHT22;5313;48.834;9.228;2022-09-01T02:04:16;15.20;99.90
10530;DHT22;5313;48.834;9.228;2022-09-01T02:06:42;15.20;99.90
10530;DHT22;5313;48.834;9.228;2022-09-01T02:09:11;15.20;99.90
10530;DHT22;5313;48.834;9.228;2022-09-01T02:11:37;15.10;99.90
10530;DHT22;5313;48.834;9.228;2022-09-01T02:14:04;15.10;99.90
10530;DHT22;5313;48.834;9.228;2022-09-01T02:16:32;15.10;99.90
10530;DHT22;5313;48.834;9.228;2022-09-01T02:18:59;15.10;99.90
10530;DHT22;5313;48.834;9.228;2022-09-01T02:21:25;15.00;99.90
10530;DHT22;5313;48.834;9.228;2022-09-01T02:24:03;15.10;99.90
10530;DHT22;5313;48.834;9.228;2022-09-01T02:26:39;15.10;99.90
10530;DHT22;5313;48.834;9.228;2022-09-01T02:29:09;15.00;99.90
10530;DHT22;5313;48.834;9.228;2022-09-01T02:31:42;15.00;99.90
10530;DHT22;5313;48.834;9.228;2022-09-01T02:34:08;15.10;99.90
10530;DHT22;5313;48.834;9.228;2022-09-01T02:36:43;15.10;99.90
10530;DHT22;5313;48.834;9.228;2022-09-01T02:39:19;15.10;99.90
10530;DHT22;5313;48.834;9.228;2022-09-01T02:41:45;15.00;99.90
10530;DHT22;5313;48.834;9.228;2022-09-01T02:44:11;14.90;99.90
10530;DHT22;5313;48.834;9.228;2022-09-01T02:46:38;14.80;99.90
10530;DHT22;5313;48.834;9.228;2022-09-01T02:49:07;14.80;99.90
10530;DHT22;5313;48.834;9.228;2022-09-01T02:51:43;14.80;99.90
10530;DHT22;5313;48.834;9.228;2022-09-01T02:54:09;14.80;99.90
10530;DHT22;5313;48.834;9.228;2022-09-01T02:56:36;14.70;99.90
10530;DHT22;5313;48.834;9.228;2022-09-01T02:59:01;14.50;99.90
10530;DHT22;5313;48.834;9.228;2022-09-01T03:01:29;14.60;99.90
10530;DHT22;5313;48.834;9.228;2022-09-01T03:04:01;14.60;99.90
10530;DHT22;5313;48.834;9.228;2022-09-01T03:06:28;14.60;99.90
10530;DHT22;5313;48.834;9.228;2022-09-01T03:08:57;14.50;99.90
10530;DHT22;5313;48.834;9.228;2022-09-01T03:11:25;14.50;99.90
10530;DHT22;5313;48.834;9.228;2022-09-01T03:13:51;14.40;99.90
10530;DHT22;5313;48.834;9.228;2022-09-01T03:16:18;14.50;99.90
10530;DHT22;5313;48.834;9.228;2022-09-01T03:18:44;14.50;99.90
10530;DHT22;5313;48.834;9.228;2022-09-01T03:21:10;14.40;99.90
10530;DHT22;5313;48.834;9.228;2022-09-01T03:23:40;14.40;99.90
10530;DHT22;5313;48.834;9.228;2022-09-01T03:26:06;14.40;99.90
10530;DHT22;5313;48.834;9.228;2022-09-01T03:28:32;14.40;99.90
10530;DHT22;5313;48.834;9.228;2022-09-01T03:30:57;14.40;99.90
10530;DHT22;5313;48.834;9.228;2022-09-01T03:33:24;14.40;99.90
10530;DHT22;5313;48.834;9.228;2022-09-01T03:35:50;14.40;99.90
10530;DHT22;5313;48.834;9.228;2022-09-01T03:38:16;14.50;99.90
10530;DHT22;5313;48.834;9.228;2022-09-01T03:40:47;14.40;99.90
10530;DHT22;5313;48.834;9.228;2022-09-01T03:43:12;14.30;99.90
10530;DHT22;5313;48.834;9.228;2022-09-01T03:45:39;14.20;99.90
10530;DHT22;5313;48.834;9.228;2022-09-01T03:48:06;14.20;99.90
10530;DHT22;5313;48.834;9.228;2022-09-01T03:50:37;14.20;99.90
10530;DHT22;5313;48.834;9.228;2022-09-01T03:53:06;14.10;99.90
10530;DHT22;5313;48.834;9.228;2022-09-01T03:55:33;14.10;99.90
10530;DHT22;5313;48.834;9.228;2022-09-01T03:58:01;14.10;99.90
10530;DHT22;5313;48.834;9.228;2022-09-01T04:00:35;14.10;99.90
10530;DHT22;5313;48.834;9.228;2022-09-01T04:03:04;14.20;99.90
10530;DHT22;5313;48.834;9.228;2022-09-01T04:05:31;14.20;99.90
10530;DHT22;5313;48.834;9.228;2022-09-01T04:08:01;14.30;99.90
10530;DHT22;5313;48.834;9.228;2022-09-01T04:10:31;14.30;99.90
10530;DHT22;5313;48.834;9.228;2022-09-01T04:12:58;14.30;99.90
10530;DHT22;5313;48.834;9.228;2022-09-01T04:15:25;14.30;99.90
10530;DHT22;5313;48.834;9.228;2022-09-01T04:17:51;14.20;99.90
10530;DHT22;5313;48.834;9.228;2022-09-01T04:20:52;14.20;99.90
10530;DHT22;5313;48.834;9.228;2022-09-01T04:26:12;14.30;99.90
10530;DHT22;5313;48.834;9.228;2022-09-01T04:28:43;14.10;99.90
10530;DHT22;5313;48.834;9.228;2022-09-01T04:31:13;14.10;99.90
10530;DHT22;5313;48.834;9.228;2022-09-01T04:33:44;14.10;99.90
10530;DHT22;5313;48.834;9.228;2022-09-01T04:36:23;14.00;99.90
10530;DHT22;5313;48.834;9.228;2022-09-01T04:38:55;14.10;99.90
10530;DHT22;5313;48.834;9.228;2022-09-01T04:41:24;14.10;99.90
10530;DHT22;5313;48.834;9.228;2022-09-01T04:43:51;14.10;99.90
10530;DHT22;5313;48.834;9.228;2022-09-01T04:46:18;14.00;99.90
10530;DHT22;5313;48.834;9.228;2022-09-01T04:48:44;14.10;99.90
10530;DHT22;5313;48.834;9.228;2022-09-01T04:51:11;14.00;99.90
10530;DHT22;5313;48.834;9.228;2022-09-01T04:53:38;14.10;99.90
10530;DHT22;5313;48.834;9.228;2022-09-01T04:56:06;14.00;99.90
10530;DHT22;5313;48.834;9.228;2022-09-01T04:58:32;14.10;99.90
10530;DHT22;5313;48.834;9.228;2022-09-01T05:00:58;14.10;99.90
10530;DHT22;5313;48.834;9.228;2022-09-01T05:03:25;14.10;99.90
10530;DHT22;5313;48.834;9.228;2022-09-01T05:05:51;14.10;99.90
10530;DHT22;5313;48.834;9.228;2022-09-01T05:08:20;14.20;99.90
10530;DHT22;5313;48.834;9.228;2022-09-01T05:10:49;14.10;99.90
10530;DHT22;5313;48.834;9.228;2022-09-01T05:13:18;14.20;99.90
10530;DHT22;5313;48.834;9.228;2022-09-01T05:15:46;14.20;99.90
10530;DHT22;5313;48.834;9.228;2022-09-01T05:18:18;14.20;99.90
10530;DHT22;5313;48.834;9.228;2022-09-01T05:20:53;14.10;99.90
10530;DHT22;5313;48.834;9.228;2022-09-01T05:23:19;14.10;99.90
10530;DHT22;5313;48.834;9.228;2022-09-01T05:25:47;14.10;99.90
10530;DHT22;5313;48.834;9.228;2022-09-01T05:28:15;14.10;99.90
10530;DHT22;5313;48.834;9.228;2022-09-01T05:30:44;14.10;99.90
10530;DHT22;5313;48.834;9.228;2022-09-01T05:33:10;14.10;99.90
10530;DHT22;5313;48.834;9.228;2022-09-01T05:35:42;14.10;99.90
10530;DHT22;5313;48.834;9.228;2022-09-01T05:38:16;14.10;99.90
10530;DHT22;5313;48.834;9.228;2022-09-01T05:40:42;14.10;99.90
10530;DHT22;5313;48.834;9.228;2022-09-01T05:43:12;14.00;99.90
10530;DHT22;5313;48.834;9.228;2022-09-01T05:45:40;14.10;99.90
10530;DHT22;5313;48.834;9.228;2022-09-01T05:48:09;14.10;99.90
10530;DHT22;5313;48.834;9.228;2022-09-01T05:50:37;14.20;99.90
10530;DHT22;5313;48.834;9.228;2022-09-01T05:53:04;14.10;99.90
10530;DHT22;5313;48.834;9.228;2022-09-01T05:55:36;14.10;99.90
10530;DHT22;5313;48.834;9.228;2022-09-01T05:58:02;14.30;99.90
10530;DHT22;5313;48.834;9.228;2022-09-01T06:00:28;14.30;99.90
10530;DHT22;5313;48.834;9.228;2022-09-01T06:02:59;14.20;99.90
10530;DHT22;5313;48.834;9.228;2022-09-01T06:05:27;14.20;99.90
10530;DHT22;5313;48.834;9.228;2022-09-01T06:07:53;14.20;99.90
10530;DHT22;5313;48.834;9.228;2022-09-01T06:10:19;14.20;99.90
10530;DHT22;5313;48.834;9.228;2022-09-01T06:12:45;14.30;99.90
10530;DHT22;5313;48.834;9.228;2022-09-01T06:15:12;14.30;99.90
10530;DHT22;5313;48.834;9.228;2022-09-01T06:17:40;14.40;99.90
10530;DHT22;5313;48.834;9.228;2022-09-01T06:20:06;14.40;99.90
10530;DHT22;5313;48.834;9.228;2022-09-01T06:22:35;14.60;99.90
10530;DHT22;5313;48.834;9.228;2022-09-01T06:25:01;14.60;99.90
10530;DHT22;5313;48.834;9.228;2022-09-01T06:27:32;14.70;99.90
10530;DHT22;5313;48.834;9.228;2022-09-01T06:29:57;14.80;99.90
10530;DHT22;5313;48.834;9.228;2022-09-01T06:32:24;14.90;99.90
10530;DHT22;5313;48.834;9.228;2022-09-01T06:34:50;14.90;99.90
10530;DHT22;5313;48.834;9.228;2022-09-01T06:37:15;14.90;99.90
10530;DHT22;5313;48.834;9.228;2022-09-01T06:39:41;15.00;99.90
10530;DHT22;5313;48.834;9.228;2022-09-01T06:42:08;15.00;99.90
10530;DHT22;5313;48.834;9.228;2022-09-01T06:44:35;15.10;99.90
10530;DHT22;5313;48.834;9.228;2022-09-01T06:47:01;15.10;99.90
10530;DHT22;5313;48.834;9.228;2022-09-01T06:49:26;15.20;99.90
10530;DHT22;5313;48.834;9.228;2022-09-01T06:52:01;15.40;99.90
10530;DHT22;5313;48.834;9.228;2022-09-01T06:54:28;15.50;99.90
10530;DHT22;5313;48.834;9.228;2022-09-01T06:56:58;15.60;99.90
10530;DHT22;5313;48.834;9.228;2022-09-01T06:59:27;15.80;99.90
10530;DHT22;5313;48.834;9.228;2022-09-01T07:01:55;16.00;99.90
10530;DHT22;5313;48.834;9.228;2022-09-01T07:04:29;16.20;99.90
10530;DHT22;5313;48.834;9.228;2022-09-01T07:06:55;16.30;99.90
10530;DHT22;5313;48.834;9.228;2022-09-01T07:09:22;16.30;99.90
10530;DHT22;5313;48.834;9.228;2022-09-01T07:11:47;16.30;99.90
10530;DHT22;5313;48.834;9.228;2022-09-01T07:14:13;16.30;99.90
10530;DHT22;5313;48.834;9.228;2022-09-01T07:16:41;16.40;99.90
10530;DHT22;5313;48.834;9.228;2022-09-01T07:19:10;16.50;99.90
10530;DHT22;5313;48.834;9.228;2022-09-01T07:21:39;16.60;99.90
10530;DHT22;5313;48.834;9.228;2022-09-01T07:24:05;17.00;99.90
10530;DHT22;5313;48.834;9.228;2022-09-01T07:26:32;17.20;99.90
10530;DHT22;5313;48.834;9.228;2022-09-01T07:28:59;17.30;99.90
10530;DHT22;5313;48.834;9.228;2022-09-01T07:31:34;17.40;99.90
10530;DHT22;5313;48.834;9.228;2022-09-01T07:34:04;17.50;99.90
10530;DHT22;5313;48.834;9.228;2022-09-01T07:36:34;17.70;99.90
10530;DHT22;5313;48.834;9.228;2022-09-01T07:39:00;18.40;99.90
10530;DHT22;5313;48.834;9.228;2022-09-01T07:41:26;18.30;99.90
10530;DHT22;5313;48.834;9.228;2022-09-01T07:43:53;18.60;99.90
10530;DHT22;5313;48.834;9.228;2022-09-01T07:46:21;19.00;99.90
10530;DHT22;5313;48.834;9.228;2022-09-01T07:48:49;18.90;99.90
10530;DHT22;5313;48.834;9.228;2022-09-01T07:51:17;19.20;99.90
10530;DHT22;5313;48.834;9.228;2022-09-01T07:53:45;19.50;99.90
10530;DHT22;5313;48.834;9.228;2022-09-01T07:56:13;19.20;99.90
10530;DHT22;5313;48.834;9.228;2022-09-01T07:58:39;19.50;99.90
10530;DHT22;5313;48.834;9.228;2022-09-01T08:01:11;19.70;99.90
10530;DHT22;5313;48.834;9.228;2022-09-01T08:03:38;20.20;99.90
10530;DHT22;5313;48.834;9.228;2022-09-01T08:06:07;19.90;99.90
10530;DHT22;5313;48.834;9.228;2022-09-01T08:08:33;19.80;99.90
10530;DHT22;5313;48.834;9.228;2022-09-01T08:10:59;19.40;99.90
10530;DHT22;5313;48.834;9.228;2022-09-01T08:13:26;19.80;99.90
10530;DHT22;5313;48.834;9.228;2022-09-01T08:15:51;19.90;99.90
10530;DHT22;5313;48.834;9.228;2022-09-01T08:18:17;20.20;99.90
10530;DHT22;5313;48.834;9.228;2022-09-01T08:20:43;20.10;99.90
10530;DHT22;5313;48.834;9.228;2022-09-01T08:23:11;20.10;99.90
10530;DHT22;5313;48.834;9.228;2022-09-01T08:25:38;19.70;99.90
10530;DHT22;5313;48.834;9.228;2022-09-01T08:28:04;19.80;99.90
10530;DHT22;5313;48.834;9.228;2022-09-01T08:30:31;19.70;99.90
10530;DHT22;5313;48.834;9.228;2022-09-01T08:32:57;19.70;99.90
10530;DHT22;5313;48.834;9.228;2022-09-01T08:35:23;19.50;99.90
10530;DHT22;5313;48.834;9.228;2022-09-01T08:37:49;20.00;99.90
10530;DHT22;5313;48.834;9.228;2022-09-01T08:40:18;20.10;99.90
10530;DHT22;5313;48.834;9.228;2022-09-01T08:43:17;20.40;99.90
10530;DHT22;5313;48.834;9.228;2022-09-01T08:45:51;20.40;99.90
10530;DHT22;5313;48.834;9.228;2022-09-01T08:48:24;20.40;99.90
10530;DHT22;5313;48.834;9.228;2022-09-01T08:50:55;20.30;99.90
10530;DHT22;5313;48.834;9.228;2022-09-01T08:53:29;19.70;99.90
10530;DHT22;5313;48.834;9.228;2022-09-01T08:55:57;19.80;99.90
10530;DHT22;5313;48.834;9.228;2022-09-01T08:58:24;19.80;99.90
10530;DHT22;5313;48.834;9.228;2022-09-01T09:00:55;19.90;99.90
10530;DHT22;5313;48.834;9.228;2022-09-01T09:03:35;19.90;99.90
10530;DHT22;5313;48.834;9.228;2022-09-01T09:06:24;19.90;99.90
10530;DHT22;5313;48.834;9.228;2022-09-01T09:08:56;19.90;99.90
10530;DHT22;5313;48.834;9.228;2022-09-01T09:11:26;20.00;99.90
10530;DHT22;5313;48.834;9.228;2022-09-01T09:15:03;19.80;99.90
10530;DHT22;5313;48.834;9.228;2022-09-01T09:17:03;19.60;99.90
10530;DHT22;5313;48.834;9.228;2022-09-01T09:19:34;19.70;99.90
10530;DHT22;5313;48.834;9.228;2022-09-01T09:22:05;19.80;99.90
10530;DHT22;5313;48.834;9.228;2022-09-01T09:27:20;20.00;99.90
10530;DHT22;5313;48.834;9.228;2022-09-01T09:29:50;20.20;99.90
10530;DHT22;5313;48.834;9.228;2022-09-01T09:32:18;20.10;99.90
10530;DHT22;5313;48.834;9.228;2022-09-01T09:34:44;20.10;99.90
10530;DHT22;5313;48.834;9.228;2022-09-01T09:37:35;20.10;99.90
10530;DHT22;5313;48.834;9.228;2022-09-01T09:40:11;19.90;99.90
10530;DHT22;5313;48.834;9.228;2022-09-01T09:45:22;19.80;99.90
10530;DHT22;5313;48.834;9.228;2022-09-01T09:47:48;19.90;99.90
10530;DHT22;5313;48.834;9.228;2022-09-01T09:50:25;20.10;99.90
10530;DHT22;5313;48.834;9.228;2022-09-01T09:52:54;20.30;99.90
10530;DHT22;5313;48.834;9.228;2022-09-01T09:55:34;20.20;99.90
10530;DHT22;5313;48.834;9.228;2022-09-01T09:58:38;20.20;99.90
10530;DHT22;5313;48.834;9.228;2022-09-01T10:01:31;20.40;99.90
10530;DHT22;5313;48.834;9.228;2022-09-01T10:07:29;20.40;99.90
10530;DHT22;5313;48.834;9.228;2022-09-01T10:09:57;20.20;99.90
10530;DHT22;5313;48.834;9.228;2022-09-01T10:12:25;20.40;99.90
10530;DHT22;5313;48.834;9.228;2022-09-01T10:15:07;20.50;99.90
10530;DHT22;5313;48.834;9.228;2022-09-01T10:17:38;20.60;99.90
10530;DHT22;5313;48.834;9.228;2022-09-01T10:20:20;21.30;99.90
10530;DHT22;5313;48.834;9.228;2022-09-01T10:22:47;21.70;99.90
10530;DHT22;5313;48.834;9.228;2022-09-01T10:25:24;22.00;99.90
10530;DHT22;5313;48.834;9.228;2022-09-01T10:27:55;21.60;99.90
10530;DHT22;5313;48.834;9.228;2022-09-01T10:30:22;21.50;99.90
10530;DHT22;5313;48.834;9.228;2022-09-01T10:32:55;21.60;99.90
10530;DHT22;5313;48.834;9.228;2022-09-01T10:35:25;21.70;99.90
10530;DHT22;5313;48.834;9.228;2022-09-01T10:37:51;21.90;99.90
10530;DHT22;5313;48.834;9.228;2022-09-01T10:42:54;21.00;99.90
10530;DHT22;5313;48.834;9.228;2022-09-01T10:45:35;20.90;99.90
10530;DHT22;5313;48.834;9.228;2022-09-01T10:50:51;21.00;99.90
10530;DHT22;5313;48.834;9.228;2022-09-01T10:56:38;21.00;99.90
10530;DHT22;5313;48.834;9.228;2022-09-01T10:59:06;21.60;99.90
10530;DHT22;5313;48.834;9.228;2022-09-01T11:04:19;21.40;99.90
10530;DHT22;5313;48.834;9.228;2022-09-01T11:07:31;21.60;99.90
10530;DHT22;5313;48.834;9.228;2022-09-01T11:15:40;23.40;99.90
10530;DHT22;5313;48.834;9.228;2022-09-01T11:18:09;23.40;99.90
10530;DHT22;5313;48.834;9.228;2022-09-01T11:20:38;22.60;99.90
10530;DHT22;5313;48.834;9.228;2022-09-01T11:23:23;21.80;99.90
10530;DHT22;5313;48.834;9.228;2022-09-01T11:25:57;22.40;99.90
10530;DHT22;5313;48.834;9.228;2022-09-01T11:30:55;22.50;99.90
10530;DHT22;5313;48.834;9.228;2022-09-01T11:44:30;24.00;99.90
10530;DHT22;5313;48.834;9.228;2022-09-01T11:47:06;23.60;99.90
10530;DHT22;5313;48.834;9.228;2022-09-01T11:49:39;23.40;99.90
10530;DHT22;5313;48.834;9.228;2022-09-01T11:52:05;23.60;99.90
10530;DHT22;5313;48.834;9.228;2022-09-01T11:54:41;24.20;99.90
10530;DHT22;5313;48.834;9.228;2022-09-01T11:59:42;23.30;99.90
10530;DHT22;5313;48.834;9.228;2022-09-01T12:02:08;23.80;99.90
10530;DHT22;5313;48.834;9.228;2022-09-01T12:04:41;24.10;99.90
10530;DHT22;5313;48.834;9.228;2022-09-01T12:07:11;24.30;99.90
10530;DHT22;5313;48.834;9.228;2022-09-01T12:09:43;24.60;99.90
10530;DHT22;5313;48.834;9.228;2022-09-01T12:12:33;25.10;99.90
10530;DHT22;5313;48.834;9.228;2022-09-01T12:15:02;24.40;99.90
10530;DHT22;5313;48.834;9.228;2022-09-01T12:17:27;24.40;99.90
10530;DHT22;5313;48.834;9.228;2022-09-01T12:19:53;24.40;99.90
10530;DHT22;5313;48.834;9.228;2022-09-01T12:22:20;25.10;99.90
10530;DHT22;5313;48.834;9.228;2022-09-01T12:24:51;25.50;99.90
10530;DHT22;5313;48.834;9.228;2022-09-01T12:27:18;25.70;99.90
10530;DHT22;5313;48.834;9.228;2022-09-01T12:29:45;25.90;99.90
10530;DHT22;5313;48.834;9.228;2022-09-01T12:32:12;25.80;99.90
10530;DHT22;5313;48.834;9.228;2022-09-01T12:34:41;25.50;99.90
10530;DHT22;5313;48.834;9.228;2022-09-01T12:37:08;25.30;99.90
10530;DHT22;5313;48.834;9.228;2022-09-01T12:39:40;25.30;99.90
10530;DHT22;5313;48.834;9.228;2022-09-01T12:44:46;25.10;99.90
10530;DHT22;5313;48.834;9.228;2022-09-01T12:50:02;26.10;99.90
10530;DHT22;5313;48.834;9.228;2022-09-01T12:52:29;26.10;99.90
10530;DHT22;5313;48.834;9.228;2022-09-01T12:57:37;25.70;99.90
10530;DHT22;5313;48.834;9.228;2022-09-01T13:00:12;25.10;99.90
10530;DHT22;5313;48.834;9.228;2022-09-01T13:02:42;25.00;99.90
10530;DHT22;5313;48.834;9.228;2022-09-01T13:05:27;25.60;99.90
10530;DHT22;5313;48.834;9.228;2022-09-01T13:08:04;25.70;99.90
10530;DHT22;5313;48.834;9.228;2022-09-01T13:10:42;26.00;99.90
10530;DHT22;5313;48.834;9.228;2022-09-01T13:13:09;25.10;99.90
10530;DHT22;5313;48.834;9.228;2022-09-01T13:15:37;24.80;99.90
10530;DHT22;5313;48.834;9.228;2022-09-01T13:18:03;25.40;99.90
10530;DHT22;5313;48.834;9.228;2022-09-01T13:20:29;25.50;99.90
10530;DHT22;5313;48.834;9.228;2022-09-01T13:22:55;25.20;99.90
10530;DHT22;5313;48.834;9.228;2022-09-01T13:25:21;25.30;99.90
10530;DHT22;5313;48.834;9.228;2022-09-01T13:27:48;25.80;99.90
10530;DHT22;5313;48.834;9.228;2022-09-01T13:30:16;25.80;99.90
10530;DHT22;5313;48.834;9.228;2022-09-01T13:32:43;26.30;99.90
10530;DHT22;5313;48.834;9.228;2022-09-01T13:35:14;26.40;99.90
10530;DHT22;5313;48.834;9.228;2022-09-01T13:37:40;25.70;99.90
10530;DHT22;5313;48.834;9.228;2022-09-01T13:40:07;25.10;99.90
10530;DHT22;5313;48.834;9.228;2022-09-01T13:42:34;25.50;99.90
10530;DHT22;5313;48.834;9.228;2022-09-01T13:45:00;25.70;99.90
10530;DHT22;5313;48.834;9.228;2022-09-01T13:47:26;25.50;99.90
10530;DHT22;5313;48.834;9.228;2022-09-01T13:49:52;25.90;99.90
10530;DHT22;5313;48.834;9.228;2022-09-01T13:52:17;26.30;99.90
10530;DHT22;5313;48.834;9.228;2022-09-01T13:54:43;25.70;99.90
10530;DHT22;5313;48.834;9.228;2022-09-01T13:57:09;26.50;99.40
10530;DHT22;5313;48.834;9.228;2022-09-01T13:59:36;26.90;98.60
10530;DHT22;5313;48.834;9.228;2022-09-01T14:02:03;26.50;99.30
10530;DHT22;5313;48.834;9.228;2022-09-01T14:04:29;26.10;99.90
10530;DHT22;5313;48.834;9.228;2022-09-01T14:06:55;25.70;99.90
10530;DHT22;5313;48.834;9.228;2022-09-01T14:09:20;25.20;99.90
10530;DHT22;5313;48.834;9.228;2022-09-01T14:11:46;25.30;99.90
10530;DHT22;5313;48.834;9.228;2022-09-01T14:14:12;25.90;99.90
10530;DHT22;5313;48.834;9.228;2022-09-01T14:16:37;26.10;99.90
10530;DHT22;5313;48.834;9.228;2022-09-01T14:19:03;26.30;99.90
10530;DHT22;5313;48.834;9.228;2022-09-01T14:21:28;25.70;99.90
10530;DHT22;5313;48.834;9.228;2022-09-01T14:23:54;26.20;99.90
10530;DHT22;5313;48.834;9.228;2022-09-01T14:26:20;25.60;99.90
10530;DHT22;5313;48.834;9.228;2022-09-01T14:28:46;26.20;99.90
10530;DHT22;5313;48.834;9.228;2022-09-01T14:31:14;26.80;99.90
10530;DHT22;5313;48.834;9.228;2022-09-01T14:33:41;26.20;99.90
10530;DHT22;5313;48.834;9.228;2022-09-01T14:36:08;25.80;99.90
10530;DHT22;5313;48.834;9.228;2022-09-01T14:38:40;25.90;99.90
10530;DHT22;5313;48.834;9.228;2022-09-01T14:41:05;25.60;99.90
10530;DHT22;5313;48.834;9.228;2022-09-01T14:43:31;24.80;99.90
10530;DHT22;5313;48.834;9.228;2022-09-01T14:46:03;24.50;99.90
10530;DHT22;5313;48.834;9.228;2022-09-01T14:48:32;25.00;99.90
10530;DHT22;5313;48.834;9.228;2022-09-01T14:50:58;24.50;99.90
10530;DHT22;5313;48.834;9.228;2022-09-01T14:53:25;24.70;99.90
10530;DHT22;5313;48.834;9.228;2022-09-01T14:55:52;24.60;99.90
10530;DHT22;5313;48.834;9.228;2022-09-01T14:58:18;24.60;99.90
10530;DHT22;5313;48.834;9.228;2022-09-01T15:00:43;25.10;99.90
10530;DHT22;5313;48.834;9.228;2022-09-01T15:03:09;25.10;99.90
10530;DHT22;5313;48.834;9.228;2022-09-01T15:05:36;25.00;99.90
10530;DHT22;5313;48.834;9.228;2022-09-01T15:08:02;25.00;99.90
10530;DHT22;5313;48.834;9.228;2022-09-01T15:10:28;24.60;99.90
10530;DHT22;5313;48.834;9.228;2022-09-01T15:12:56;24.10;99.90
10530;DHT22;5313;48.834;9.228;2022-09-01T15:15:21;24.20;99.90
10530;DHT22;5313;48.834;9.228;2022-09-01T15:17:47;24.20;99.90
10530;DHT22;5313;48.834;9.228;2022-09-01T15:20:13;24.30;99.90
10530;DHT22;5313;48.834;9.228;2022-09-01T15:22:57;24.00;99.90
10530;DHT22;5313;48.834;9.228;2022-09-01T15:25:23;24.00;99.90
10530;DHT22;5313;48.834;9.228;2022-09-01T15:27:49;23.80;99.90
10530;DHT22;5313;48.834;9.228;2022-09-01T15:30:14;23.90;99.90
10530;DHT22;5313;48.834;9.228;2022-09-01T15:32:42;24.10;99.90
10530;DHT22;5313;48.834;9.228;2022-09-01T15:35:08;24.10;99.90
10530;DHT22;5313;48.834;9.228;2022-09-01T15:37:34;23.80;99.90
10530;DHT22;5313;48.834;9.228;2022-09-01T15:40:00;23.60;99.90
10530;DHT22;5313;48.834;9.228;2022-09-01T15:42:26;23.50;99.90
10530;DHT22;5313;48.834;9.228;2022-09-01T15:44:52;23.40;99.90
10530;DHT22;5313;48.834;9.228;2022-09-01T15:47:17;23.40;99.90
10530;DHT22;5313;48.834;9.228;2022-09-01T15:49:43;23.40;99.90
10530;DHT22;5313;48.834;9.228;2022-09-01T15:52:09;23.40;99.90
10530;DHT22;5313;48.834;9.228;2022-09-01T15:54:38;23.50;99.90
10530;DHT22;5313;48.834;9.228;2022-09-01T15:57:04;23.50;99.90
10530;DHT22;5313;48.834;9.228;2022-09-01T15:59:30;23.40;99.90
10530;DHT22;5313;48.834;9.228;2022-09-01T16:01:56;23.50;99.90
10530;DHT22;5313;48.834;9.228;2022-09-01T16:04:22;23.60;99.90
10530;DHT22;5313;48.834;9.228;2022-09-01T16:06:48;23.70;99.90
10530;DHT22;5313;48.834;9.228;2022-09-01T16:09:16;23.70;99.90
10530;DHT22;5313;48.834;9.228;2022-09-01T16:11:43;23.70;99.90
10530;DHT22;5313;48.834;9.228;2022-09-01T16:14:09;23.80;99.90
10530;DHT22;5313;48.834;9.228;2022-09-01T16:19:20;26.40;99.90
10530;DHT22;5313;48.834;9.228;2022-09-01T16:22:15;22.70;99.90
10530;DHT22;5313;48.834;9.228;2022-09-01T16:24:48;23.60;99.90
10530;DHT22;5313;48.834;9.228;2022-09-01T16:27:17;23.60;99.90
10530;DHT22;5313;48.834;9.228;2022-09-01T16:29:48;23.60;99.90
10530;DHT22;5313;48.834;9.228;2022-09-01T16:32:14;23.40;99.90
10530;DHT22;5313;48.834;9.228;2022-09-01T16:34:43;23.40;99.90
10530;DHT22;5313;48.834;9.228;2022-09-01T16:40:02;23.40;99.90
10530;DHT22;5313;48.834;9.228;2022-09-01T16:48:07;23.30;99.90
10530;DHT22;5313;48.834;9.228;2022-09-01T16:50:44;23.20;99.90
10530;DHT22;5313;48.834;9.228;2022-09-01T16:56:00;23.20;99.90
10530;DHT22;5313;48.834;9.228;2022-09-01T16:58:47;23.30;99.90
10530;DHT22;5313;48.834;9.228;2022-09-01T17:01:26;23.20;99.90
10530;DHT22;5313;48.834;9.228;2022-09-01T17:06:35;23.10;99.90
10530;DHT22;5313;48.834;9.228;2022-09-01T17:09:09;23.00;99.90
10530;DHT22;5313;48.834;9.228;2022-09-01T17:11:41;23.10;99.90